createdAt,value
2023-04-10T00:00:00.550Z,83
2023-04-10T00:04:01.019Z,83
2023-04-10T00:08:00.541Z,83
2023-04-10T00:12:00.576Z,83
2023-04-10T00:16:00.543Z,83
2023-04-10T00:20:00.587Z,83
2023-04-10T00:24:00.607Z,84
2023-04-10T00:28:00.549Z,84
2023-04-10T00:32:00.614Z,84
2023-04-10T00:36:00.607Z,84
2023-04-10T00:40:00.631Z,84
2023-04-10T00:44:00.593Z,84
2023-04-10T00:48:00.622Z,84
2023-04-10T00:52:00.597Z,84
2023-04-10T00:56:00.557Z,84
2023-04-10T01:00:00.547Z,84
2023-04-10T01:04:01.052Z,84
2023-04-10T01:08:00.577Z,84
2023-04-10T01:12:00.605Z,84
2023-04-10T01:16:00.553Z,84
2023-04-10T01:20:00.847Z,84
2023-04-10T01:24:00.580Z,84
2023-04-10T01:28:00.634Z,85
2023-04-10T01:32:00.621Z,85
2023-04-10T01:36:00.644Z,85
2023-04-10T01:40:00.631Z,85
2023-04-10T01:44:00.531Z,85
2023-04-10T01:48:00.641Z,85
2023-04-10T01:52:00.589Z,85
2023-04-10T01:56:00.545Z,85
2023-04-10T02:00:00.556Z,85
2023-04-10T02:04:00.649Z,85
2023-04-10T02:08:00.594Z,85
2023-04-10T02:12:01.557Z,85
2023-04-10T02:16:02.056Z,85
2023-04-10T02:20:00.556Z,85
2023-04-10T02:24:00.523Z,85
2023-04-10T02:28:00.537Z,85
2023-04-10T02:32:00.513Z,85
2023-04-10T02:36:00.601Z,85
2023-04-10T02:40:00.557Z,85
2023-04-10T02:44:00.520Z,85
2023-04-10T02:48:00.592Z,85
2023-04-10T02:52:00.541Z,85
2023-04-10T02:56:00.564Z,85
2023-04-10T03:00:00.523Z,85
2023-04-10T03:04:00.605Z,85
2023-04-10T03:08:00.538Z,85
2023-04-10T03:12:00.528Z,85
2023-04-10T03:16:00.540Z,85
2023-04-10T03:20:00.536Z,85
2023-04-10T03:24:00.533Z,85
2023-04-10T03:28:00.543Z,85
2023-04-10T03:32:00.605Z,86
2023-04-10T03:36:00.600Z,86
2023-04-10T03:40:00.576Z,86
2023-04-10T03:44:00.547Z,86
2023-04-10T03:48:00.649Z,86
2023-04-10T03:52:00.534Z,86
2023-04-10T03:56:00.537Z,86
2023-04-10T04:00:00.589Z,86
2023-04-10T04:04:01.111Z,86
2023-04-10T04:08:00.540Z,86
2023-04-10T04:12:00.552Z,86
2023-04-10T04:16:00.505Z,86
2023-04-10T04:20:00.536Z,86
2023-04-10T04:24:00.543Z,86
2023-04-10T04:28:00.536Z,86
2023-04-10T04:32:00.570Z,86
2023-04-10T04:36:00.541Z,86
2023-04-10T04:40:00.559Z,87
2023-04-10T04:44:00.549Z,87
2023-04-10T04:48:00.635Z,87
2023-04-10T04:52:00.555Z,87
2023-04-10T04:56:00.578Z,87
2023-04-10T05:00:00.567Z,87
2023-04-10T05:04:00.586Z,87
2023-04-10T05:08:00.568Z,87
2023-04-10T05:12:00.565Z,87
2023-04-10T05:16:00.630Z,87
2023-04-10T05:20:00.531Z,87
2023-04-10T05:24:00.532Z,87
2023-04-10T05:28:00.557Z,87
2023-04-10T05:32:00.610Z,88
2023-04-10T05:36:00.675Z,88
2023-04-10T05:40:00.568Z,88
2023-04-10T05:44:00.527Z,88
2023-04-10T05:48:00.568Z,88
2023-04-10T05:52:00.567Z,87
2023-04-10T05:56:00.527Z,87
2023-04-10T06:00:00.556Z,87
2023-04-10T06:04:00.720Z,87
2023-04-10T06:08:00.550Z,87
2023-04-10T06:12:00.520Z,87
2023-04-10T06:16:00.931Z,88
2023-04-10T06:20:00.520Z,87
2023-04-10T06:24:00.542Z,87
2023-04-10T06:28:00.577Z,87
2023-04-10T06:32:00.646Z,87
2023-04-10T06:36:00.542Z,87
2023-04-10T06:40:00.566Z,87
2023-04-10T06:44:02.592Z,87
2023-04-10T06:48:00.620Z,87
2023-04-10T06:52:00.566Z,87
2023-04-10T06:56:03.107Z,87
2023-04-10T07:00:00.561Z,86
2023-04-10T07:04:00.600Z,86
2023-04-10T07:08:00.552Z,86
2023-04-10T07:12:00.534Z,86
2023-04-10T07:16:00.586Z,87
2023-04-10T07:20:00.530Z,86
2023-04-10T07:24:00.573Z,86
2023-04-10T07:28:00.680Z,86
2023-04-10T07:32:00.668Z,85
2023-04-10T07:36:00.564Z,85
2023-04-10T07:40:00.551Z,85
2023-04-10T07:44:00.572Z,84
2023-04-10T07:48:00.618Z,84
2023-04-10T07:52:00.558Z,82
2023-04-10T07:56:00.535Z,82
2023-04-10T08:00:00.534Z,82
2023-04-10T08:04:02.876Z,78
2023-04-10T08:08:00.546Z,78
2023-04-10T08:12:00.570Z,78
2023-04-10T08:16:00.526Z,78
2023-04-10T08:20:00.553Z,78
2023-04-10T08:24:00.541Z,78
2023-04-10T08:28:00.554Z,78
2023-04-10T08:32:00.527Z,78
2023-04-10T08:36:00.557Z,78
2023-04-10T08:40:00.560Z,78
2023-04-10T08:44:00.565Z,62
2023-04-10T08:48:00.648Z,58
2023-04-10T08:52:00.543Z,58
2023-04-10T08:56:00.548Z,57
2023-04-10T09:00:04.303Z,55
2023-04-10T09:04:01.764Z,55
2023-04-10T09:08:00.528Z,55
2023-04-10T09:12:00.905Z,55
2023-04-10T09:16:00.722Z,52
2023-04-10T09:20:00.587Z,52
2023-04-10T09:24:00.540Z,53
2023-04-10T09:28:00.563Z,51
2023-04-10T09:32:00.532Z,52
2023-04-10T09:36:00.670Z,52
2023-04-10T09:40:00.557Z,49
2023-04-10T09:44:00.564Z,49
2023-04-10T09:48:00.557Z,49
2023-04-10T09:52:00.543Z,48
2023-04-10T09:56:00.524Z,49
2023-04-10T10:00:00.529Z,49
2023-04-10T10:04:00.533Z,45
2023-04-10T10:08:00.552Z,48
2023-04-10T10:12:00.536Z,48
2023-04-10T10:16:00.552Z,47
2023-04-10T10:20:00.546Z,48
2023-04-10T10:24:00.558Z,45
2023-04-10T10:28:00.540Z,48
2023-04-10T10:32:00.585Z,44
2023-04-10T10:36:00.514Z,46
2023-04-10T10:40:00.552Z,46
2023-04-10T10:44:00.542Z,44
2023-04-10T10:48:00.626Z,43
2023-04-10T10:52:00.550Z,44
2023-04-10T10:56:00.557Z,44
2023-04-10T11:00:00.551Z,43
2023-04-10T11:04:00.627Z,42
2023-04-10T11:08:00.565Z,40
2023-04-10T11:12:00.543Z,42
2023-04-10T11:16:00.537Z,39
2023-04-10T11:20:00.577Z,42
2023-04-10T11:24:00.571Z,40
2023-04-10T11:28:00.557Z,41
2023-04-10T11:32:00.543Z,41
2023-04-10T11:36:00.551Z,40
2023-04-10T11:40:00.529Z,40
2023-04-10T11:44:00.539Z,39
2023-04-10T11:48:00.629Z,39
2023-04-10T11:52:00.519Z,39
2023-04-10T11:56:00.570Z,39
2023-04-10T12:00:00.535Z,40
2023-04-10T12:04:00.774Z,37
2023-04-10T12:08:00.530Z,37
2023-04-10T12:12:00.524Z,37
2023-04-10T12:16:00.572Z,37
2023-04-10T12:20:00.534Z,38
2023-04-10T12:24:00.532Z,38
2023-04-10T12:28:00.546Z,38
2023-04-10T12:32:00.531Z,38
2023-04-10T12:36:00.589Z,38
2023-04-10T12:40:00.555Z,38
2023-04-10T12:44:00.573Z,38
2023-04-10T12:48:00.624Z,38
2023-04-10T12:52:00.548Z,38
2023-04-10T12:56:00.541Z,38
2023-04-10T13:00:00.535Z,38
2023-04-10T13:04:00.762Z,43
2023-04-10T13:08:00.558Z,43
2023-04-10T13:12:00.537Z,43
2023-04-10T13:16:00.626Z,43
2023-04-10T13:20:00.547Z,43
2023-04-10T13:24:00.529Z,43
2023-04-10T13:28:00.550Z,43
2023-04-10T13:32:00.560Z,43
2023-04-10T13:36:00.661Z,43
2023-04-10T13:40:00.541Z,43
2023-04-10T13:44:00.551Z,43
2023-04-10T13:48:00.591Z,43
2023-04-10T13:52:00.548Z,43
2023-04-10T13:56:00.539Z,43
2023-04-10T14:00:00.535Z,43
2023-04-10T14:04:00.642Z,43
2023-04-10T14:08:00.544Z,43
2023-04-10T14:12:00.557Z,43
2023-04-10T14:16:00.528Z,43
2023-04-10T14:20:00.541Z,43
2023-04-10T14:24:00.560Z,43
2023-04-10T14:28:00.549Z,43
2023-04-10T14:32:00.570Z,43
2023-04-10T14:36:00.555Z,43
2023-04-10T14:40:00.536Z,36
2023-04-10T14:44:00.533Z,36
2023-04-10T14:48:00.645Z,36
2023-04-10T14:52:00.538Z,36
2023-04-10T14:56:00.536Z,36
2023-04-10T15:00:00.550Z,35
2023-04-10T15:04:00.703Z,35
2023-04-10T15:08:00.649Z,35
2023-04-10T15:12:00.620Z,35
2023-04-10T15:16:00.554Z,36
2023-04-10T15:20:00.557Z,36
2023-04-10T15:24:00.527Z,36
2023-04-10T15:28:02.031Z,35
2023-04-10T15:32:00.675Z,35
2023-04-10T15:36:00.831Z,35
2023-04-10T15:40:00.582Z,35
2023-04-10T15:44:00.563Z,36
2023-04-10T15:48:00.571Z,36
2023-04-10T15:52:00.525Z,37
2023-04-10T15:56:00.530Z,37
2023-04-10T16:00:00.656Z,38
2023-04-10T16:04:00.762Z,38
2023-04-10T16:08:00.556Z,38
2023-04-10T16:12:00.564Z,38
2023-04-10T16:16:00.556Z,38
2023-04-10T16:20:00.599Z,38
2023-04-10T16:24:00.528Z,38
2023-04-10T16:28:00.535Z,38
2023-04-10T16:32:00.534Z,38
2023-04-10T16:36:00.571Z,39
2023-04-10T16:40:00.641Z,39
2023-04-10T16:44:00.559Z,40
2023-04-10T16:48:00.685Z,40
2023-04-10T16:52:00.538Z,40
2023-04-10T16:56:02.931Z,41
2023-04-10T17:00:00.804Z,41
2023-04-10T17:04:00.570Z,41
2023-04-10T17:08:00.533Z,41
2023-04-10T17:12:00.564Z,42
2023-04-10T17:16:00.538Z,43
2023-04-10T17:20:00.550Z,44
2023-04-10T17:24:00.577Z,44
2023-04-10T17:28:00.543Z,45
2023-04-10T17:32:00.668Z,45
2023-04-10T17:36:00.532Z,45
2023-04-10T17:40:00.572Z,46
2023-04-10T17:44:00.554Z,46
2023-04-10T17:48:00.742Z,47
2023-04-10T17:52:00.572Z,47
2023-04-10T17:56:00.532Z,48
2023-04-10T18:00:00.563Z,48
2023-04-10T18:04:00.645Z,48
2023-04-10T18:08:00.543Z,49
2023-04-10T18:12:00.529Z,49
2023-04-10T18:16:00.531Z,50
2023-04-10T18:20:00.545Z,51
2023-04-10T18:24:00.545Z,51
2023-04-10T18:32:00.531Z,52
2023-04-10T18:36:00.566Z,52
2023-04-10T18:40:13.553Z,52
2023-04-10T18:44:05.388Z,52
2023-04-10T18:48:00.590Z,52
2023-04-10T18:52:00.585Z,53
2023-04-10T18:56:00.532Z,53
2023-04-10T19:00:00.551Z,53
2023-04-10T19:04:01.049Z,53
2023-04-10T19:08:04.322Z,53
2023-04-10T19:12:00.541Z,54
2023-04-10T19:16:00.638Z,54
2023-04-10T19:20:00.638Z,54
2023-04-10T19:24:00.553Z,54
2023-04-10T19:28:00.514Z,54
2023-04-10T19:32:00.544Z,54
2023-04-10T19:36:00.580Z,54
2023-04-10T19:40:00.562Z,54
2023-04-10T19:44:00.582Z,54
2023-04-10T19:48:00.636Z,54
2023-04-10T19:52:00.541Z,54
2023-04-10T19:56:00.552Z,53
2023-04-10T20:00:00.575Z,53
2023-04-10T20:04:00.641Z,53
2023-04-10T20:08:00.531Z,52
2023-04-10T20:12:00.550Z,52
2023-04-10T20:16:00.532Z,52
2023-04-10T20:20:00.524Z,52
2023-04-10T20:24:00.544Z,51
2023-04-10T20:28:00.537Z,51
2023-04-10T20:32:00.633Z,50
2023-04-10T20:36:00.613Z,50
2023-04-10T20:40:00.532Z,49
2023-04-10T20:44:00.558Z,50
2023-04-10T20:48:00.573Z,50
2023-04-10T20:52:00.542Z,49
2023-04-10T20:56:00.515Z,50
2023-04-10T21:00:00.529Z,49
2023-04-10T21:04:00.783Z,49
2023-04-10T21:08:00.560Z,49
2023-04-10T21:12:00.555Z,49
2023-04-10T21:16:00.515Z,49
2023-04-10T21:20:00.562Z,49
2023-04-10T21:24:00.542Z,49
2023-04-10T21:28:00.548Z,49
2023-04-10T21:32:00.603Z,49
2023-04-10T21:36:00.613Z,49
2023-04-10T21:40:00.551Z,50
2023-04-10T21:44:00.566Z,50
2023-04-10T21:48:00.720Z,50
2023-04-10T21:52:00.569Z,50
2023-04-10T21:56:00.509Z,51
2023-04-10T22:00:00.543Z,51
2023-04-10T22:04:00.665Z,51
2023-04-10T22:08:00.567Z,51
2023-04-10T22:12:00.525Z,51
2023-04-10T22:16:00.536Z,52
2023-04-10T22:20:00.535Z,52
2023-04-10T22:24:00.556Z,52
2023-04-10T22:28:00.557Z,52
2023-04-10T22:32:00.541Z,52
2023-04-10T22:36:00.560Z,52
2023-04-10T22:40:00.586Z,52
2023-04-10T22:44:00.528Z,52
2023-04-10T22:48:00.561Z,52
2023-04-10T22:52:00.526Z,52
2023-04-10T22:56:00.541Z,52
2023-04-10T23:00:00.993Z,52
2023-04-10T23:04:00.626Z,52
2023-04-10T23:08:00.559Z,51
2023-04-10T23:12:00.570Z,51
2023-04-10T23:16:00.534Z,51
2023-04-10T23:20:00.535Z,51
2023-04-10T23:24:00.543Z,52
2023-04-10T23:28:00.519Z,52
2023-04-10T23:32:00.556Z,52
2023-04-10T23:36:00.568Z,52
2023-04-10T23:40:00.593Z,51
2023-04-10T23:44:00.536Z,51
2023-04-10T23:48:00.599Z,51
2023-04-10T23:52:00.553Z,51
2023-04-10T23:56:00.536Z,51
